createdAt,value
2023-01-30T00:01:00.378Z,17.63
2023-01-30T00:03:48.287Z,19.75
2023-01-30T00:06:35.755Z,19.98
2023-01-30T00:09:23.440Z,20.15
2023-01-30T00:12:10.906Z,22.35
2023-01-30T00:14:59.582Z,21.83
2023-01-30T00:17:47.037Z,19.00
2023-01-30T00:20:34.854Z,24.75
2023-01-30T00:23:22.314Z,20.77
2023-01-30T00:26:10.654Z,21.27
2023-01-30T00:28:59.020Z,21.45
2023-01-30T00:31:47.928Z,20.23
2023-01-30T00:34:37.969Z,24.38
2023-01-30T00:37:25.757Z,22.88
2023-01-30T00:40:13.747Z,24.20
2023-01-30T00:43:33.273Z,24.42
2023-01-30T00:46:44.694Z,26.83
2023-01-30T00:49:33.782Z,25.73
2023-01-30T00:52:21.640Z,25.23
2023-01-30T00:55:10.268Z,25.30
2023-01-30T00:57:57.662Z,22.17
2023-01-30T01:00:45.093Z,26.77
2023-01-30T01:03:32.715Z,23.58
2023-01-30T01:06:22.351Z,23.02
2023-01-30T01:09:10.350Z,23.85
2023-01-30T01:11:58.110Z,28.33
2023-01-30T01:14:45.644Z,23.90
2023-01-30T01:17:33.502Z,23.58
2023-01-30T01:20:22.585Z,22.17
2023-01-30T01:23:12.521Z,23.80
2023-01-30T01:26:02.993Z,19.30
2023-01-30T01:28:50.345Z,19.40
2023-01-30T01:31:38.934Z,25.33
2023-01-30T01:34:26.915Z,20.52
2023-01-30T01:37:14.614Z,23.48
2023-01-30T01:40:23.147Z,19.42
2023-01-30T01:43:19.150Z,20.23
2023-01-30T01:46:12.283Z,22.35
2023-01-30T01:49:03.184Z,21.63
2023-01-30T01:51:56.518Z,19.80
2023-01-30T01:54:48.819Z,18.95
2023-01-30T01:57:41.290Z,22.02
2023-01-30T02:00:28.963Z,22.10
2023-01-30T02:03:20.700Z,20.83
2023-01-30T02:06:09.521Z,30.05
2023-01-30T02:09:03.766Z,18.52
2023-01-30T02:11:57.236Z,22.63
2023-01-30T02:14:46.967Z,23.30
2023-01-30T02:17:34.746Z,25.60
2023-01-30T02:20:33.460Z,18.58
2023-01-30T02:23:44.152Z,19.05
2023-01-30T02:27:09.394Z,23.25
2023-01-30T02:30:27.821Z,23.23
2023-01-30T02:33:24.963Z,20.23
2023-01-30T02:36:22.245Z,20.83
2023-01-30T02:39:33.999Z,22.83
2023-01-30T02:42:29.369Z,22.38
2023-01-30T02:45:24.127Z,21.13
2023-01-30T02:48:15.471Z,21.92
2023-01-30T02:51:07.772Z,20.15
2023-01-30T02:53:55.918Z,23.33
2023-01-30T02:56:50.086Z,23.35
2023-01-30T02:59:42.750Z,19.42
2023-01-30T03:03:07.543Z,21.65
2023-01-30T03:06:14.934Z,21.23
2023-01-30T03:09:13.338Z,19.75
2023-01-30T03:12:09.531Z,21.05
2023-01-30T03:15:04.597Z,19.80
2023-01-30T03:17:53.732Z,19.13
2023-01-30T03:20:43.116Z,19.33
2023-01-30T03:23:32.104Z,21.42
2023-01-30T03:26:22.031Z,22.65
2023-01-30T03:29:10.296Z,23.88
2023-01-30T03:31:57.610Z,22.35
2023-01-30T03:34:45.069Z,22.50
2023-01-30T03:37:33.792Z,23.02
2023-01-30T03:40:24.020Z,22.17
2023-01-30T03:43:11.593Z,22.75
2023-01-30T03:45:59.746Z,20.10
2023-01-30T03:48:47.358Z,20.02
2023-01-30T03:51:34.897Z,18.13
2023-01-30T03:54:23.873Z,19.15
2023-01-30T03:57:13.035Z,16.48
2023-01-30T04:00:00.980Z,19.23
2023-01-30T04:02:48.720Z,22.27
2023-01-30T04:05:38.309Z,20.40
2023-01-30T04:08:28.767Z,16.65
2023-01-30T04:11:16.591Z,18.55
2023-01-30T04:14:05.575Z,16.90
2023-01-30T04:16:57.618Z,20.33
2023-01-30T04:20:14.567Z,23.50
2023-01-30T04:23:07.886Z,16.63
2023-01-30T04:25:55.919Z,20.02
2023-01-30T04:28:46.139Z,18.20
2023-01-30T04:31:36.267Z,16.05
2023-01-30T04:34:34.749Z,12.35
2023-01-30T04:37:23.333Z,15.07
2023-01-30T04:40:13.095Z,18.42
2023-01-30T04:43:00.999Z,16.77
2023-01-30T04:46:00.167Z,16.77
2023-01-30T04:48:49.489Z,16.30
2023-01-30T04:51:37.110Z,16.65
2023-01-30T04:54:25.265Z,19.20
2023-01-30T04:57:13.295Z,16.05
2023-01-30T05:00:01.004Z,21.10
2023-01-30T05:02:48.600Z,25.83
2023-01-30T05:05:37.473Z,15.38
2023-01-30T05:08:29.418Z,15.75
2023-01-30T05:11:16.806Z,16.77
2023-01-30T05:14:04.414Z,19.58
2023-01-30T05:16:52.034Z,17.45
2023-01-30T05:19:39.585Z,17.50
2023-01-30T05:22:28.781Z,20.98
2023-01-30T05:25:17.073Z,20.80
2023-01-30T05:28:05.134Z,17.65
2023-01-30T05:30:53.119Z,16.45
2023-01-30T05:33:40.883Z,17.10
2023-01-30T05:36:28.640Z,19.75
2023-01-30T05:39:17.595Z,18.77
2023-01-30T05:42:05.868Z,19.55
2023-01-30T05:44:53.596Z,20.65
2023-01-30T05:47:41.400Z,20.15
2023-01-30T05:50:28.937Z,18.38
2023-01-30T05:53:16.460Z,18.52
2023-01-30T05:56:07.459Z,18.05
2023-01-30T05:58:56.932Z,19.65
2023-01-30T06:01:44.599Z,20.52
2023-01-30T06:04:31.921Z,23.67
2023-01-30T06:07:19.444Z,20.83
2023-01-30T06:10:07.814Z,22.67
2023-01-30T06:12:56.506Z,18.33
2023-01-30T06:15:44.160Z,19.48
2023-01-30T06:18:32.254Z,21.23
2023-01-30T06:21:19.675Z,20.80
2023-01-30T06:24:07.993Z,19.98
2023-01-30T06:26:55.523Z,20.33
2023-01-30T06:29:44.370Z,26.17
2023-01-30T06:32:32.082Z,21.73
2023-01-30T06:35:19.860Z,19.83
2023-01-30T06:38:09.633Z,18.67
2023-01-30T06:40:57.197Z,20.90
2023-01-30T06:43:45.243Z,19.13
2023-01-30T06:46:34.376Z,17.60
2023-01-30T06:49:22.091Z,19.30
2023-01-30T06:52:09.891Z,21.83
2023-01-30T06:54:57.600Z,16.70
2023-01-30T06:57:46.183Z,20.27
2023-01-30T07:00:34.437Z,21.80
2023-01-30T07:03:23.308Z,21.08
2023-01-30T07:06:11.075Z,18.00
2023-01-30T07:08:58.802Z,18.48
2023-01-30T07:11:47.834Z,22.40
2023-01-30T07:14:35.576Z,19.20
2023-01-30T07:17:23.931Z,21.10
2023-01-30T07:20:13.977Z,21.25
2023-01-30T07:23:01.675Z,22.90
2023-01-30T07:25:49.460Z,26.25
2023-01-30T07:28:37.463Z,22.80
2023-01-30T07:31:25.525Z,26.75
2023-01-30T07:34:13.214Z,23.85
2023-01-30T07:37:02.454Z,21.25
2023-01-30T07:39:49.891Z,23.23
2023-01-30T07:42:37.334Z,25.65
2023-01-30T07:45:25.032Z,26.48
2023-01-30T07:48:14.392Z,24.77
2023-01-30T07:51:02.159Z,22.75
2023-01-30T07:53:52.491Z,23.42
2023-01-30T07:56:40.199Z,28.48
2023-01-30T07:59:27.699Z,24.40
2023-01-30T08:02:15.053Z,28.40
2023-01-30T08:05:04.029Z,30.00
2023-01-30T08:07:53.724Z,29.17
2023-01-30T08:10:42.873Z,28.10
2023-01-30T08:13:30.365Z,29.13
2023-01-30T08:16:17.962Z,28.17
2023-01-30T08:19:06.509Z,27.33
2023-01-30T08:21:54.607Z,24.23
2023-01-30T08:24:41.968Z,24.80
2023-01-30T08:27:30.979Z,27.33
2023-01-30T08:30:20.426Z,24.58
2023-01-30T08:33:08.384Z,26.30
2023-01-30T08:35:58.079Z,30.55
2023-01-30T08:38:46.231Z,24.23
2023-01-30T08:41:34.052Z,25.55
2023-01-30T08:44:23.010Z,27.75
2023-01-30T08:47:10.578Z,26.42
2023-01-30T08:49:58.127Z,23.88
2023-01-30T08:52:45.551Z,29.02
2023-01-30T08:55:33.383Z,25.55
2023-01-30T08:58:21.405Z,27.77
2023-01-30T09:01:10.582Z,33.10
2023-01-30T09:03:58.752Z,25.65
2023-01-30T09:06:45.985Z,25.25
2023-01-30T09:09:33.556Z,25.02
2023-01-30T09:12:20.992Z,25.00
2023-01-30T09:15:10.030Z,28.45
2023-01-30T09:17:59.634Z,23.05
2023-01-30T09:20:47.208Z,24.42
2023-01-30T09:23:35.183Z,23.92
2023-01-30T09:26:22.664Z,26.33
2023-01-30T09:29:10.176Z,31.83
2023-01-30T09:31:58.831Z,28.48
2023-01-30T09:34:48.121Z,29.17
2023-01-30T09:37:36.008Z,22.60
2023-01-30T09:40:27.781Z,28.05
2023-01-30T09:43:28.466Z,28.80
2023-01-30T09:46:25.519Z,27.13
2023-01-30T09:52:20.810Z,31.98
2023-01-30T09:55:18.847Z,34.50
2023-01-30T09:58:06.697Z,29.77
2023-01-30T10:01:01.255Z,26.80
2023-01-30T10:04:02.956Z,26.52
2023-01-30T10:07:00.508Z,25.08
2023-01-30T10:09:55.987Z,23.08
2023-01-30T10:12:51.705Z,23.90
2023-01-30T10:15:51.067Z,22.45
2023-01-30T10:19:11.501Z,19.17
2023-01-30T10:22:07.378Z,19.83
2023-01-30T10:25:09.804Z,20.83
2023-01-30T10:28:02.990Z,24.90
2023-01-30T10:30:56.429Z,19.60
2023-01-30T10:33:50.375Z,21.10
2023-01-30T10:36:42.895Z,21.00
2023-01-30T10:39:40.850Z,20.83
2023-01-30T10:42:40.487Z,22.67
2023-01-30T10:45:36.669Z,22.70
2023-01-30T10:48:55.306Z,22.50
2023-01-30T10:51:52.532Z,19.38
2023-01-30T10:54:45.785Z,24.70
2023-01-30T10:57:45.881Z,16.65
2023-01-30T11:00:39.716Z,20.23
2023-01-30T11:03:35.340Z,19.67
2023-01-30T11:06:25.124Z,38.85
2023-01-30T11:09:12.590Z,27.95
2023-01-30T11:12:00.466Z,22.55
2023-01-30T11:14:54.314Z,27.83
2023-01-30T11:17:45.185Z,21.90
2023-01-30T11:20:32.592Z,32.85
2023-01-30T11:23:32.267Z,23.45
2023-01-30T11:26:29.453Z,22.98
2023-01-30T11:29:31.890Z,24.63
2023-01-30T11:32:30.153Z,22.92
2023-01-30T11:35:29.505Z,31.88
2023-01-30T11:38:24.110Z,31.77
2023-01-30T11:41:21.944Z,27.40
2023-01-30T11:44:11.350Z,24.48
2023-01-30T11:47:02.336Z,26.10
2023-01-30T11:50:15.005Z,31.33
2023-01-30T11:53:04.959Z,31.10
2023-01-30T11:56:02.565Z,17.20
2023-01-30T11:58:58.850Z,17.13
2023-01-30T12:01:46.677Z,16.65
2023-01-30T12:04:34.714Z,18.88
2023-01-30T12:07:27.004Z,16.80
2023-01-30T12:10:29.152Z,14.45
2023-01-30T12:13:21.706Z,17.63
2023-01-30T12:16:22.087Z,12.27
2023-01-30T12:19:27.365Z,8.60
2023-01-30T12:22:25.605Z,8.65
2023-01-30T12:25:20.248Z,10.60
2023-01-30T12:28:16.807Z,9.32
2023-01-30T12:31:09.697Z,12.30
2023-01-30T12:33:57.156Z,14.93
2023-01-30T12:36:50.848Z,12.63
2023-01-30T12:39:51.706Z,14.65
2023-01-30T12:43:01.680Z,12.25
2023-01-30T12:46:01.248Z,11.55
2023-01-30T12:49:12.252Z,8.02
2023-01-30T12:52:26.755Z,8.43
2023-01-30T12:55:30.550Z,8.25
2023-01-30T12:58:21.732Z,10.15
2023-01-30T13:01:25.239Z,11.73
2023-01-30T13:04:25.992Z,10.23
2023-01-30T13:07:22.682Z,9.73
2023-01-30T13:10:18.263Z,9.77
2023-01-30T13:13:19.141Z,6.03
2023-01-30T13:16:13.124Z,8.88
2023-01-30T13:19:07.055Z,10.55
2023-01-30T13:22:02.759Z,9.27
2023-01-30T13:25:00.275Z,8.07
2023-01-30T13:27:56.497Z,9.50
2023-01-30T13:30:48.763Z,7.32
2023-01-30T13:33:39.628Z,6.18
2023-01-30T13:36:34.219Z,7.50
2023-01-30T13:39:31.771Z,7.45
2023-01-30T13:42:27.500Z,10.60
2023-01-30T13:45:19.636Z,7.75
2023-01-30T13:48:21.222Z,5.57
2023-01-30T13:51:28.305Z,5.35
2023-01-30T13:54:38.490Z,9.63
2023-01-30T13:57:36.092Z,3.40
2023-01-30T14:00:30.073Z,4.63
2023-01-30T14:03:29.054Z,5.25
2023-01-30T14:06:37.154Z,8.30
2023-01-30T14:09:29.677Z,5.30
2023-01-30T14:12:20.739Z,4.97
2023-01-30T14:15:24.255Z,4.95
2023-01-30T14:18:25.176Z,6.72
2023-01-30T14:21:20.204Z,5.70
2023-01-30T14:24:08.241Z,5.13
2023-01-30T14:27:08.645Z,6.68
2023-01-30T14:29:57.929Z,3.80
2023-01-30T14:32:56.553Z,4.30
2023-01-30T14:35:45.266Z,5.15
2023-01-30T14:38:33.373Z,6.20
2023-01-30T14:41:28.327Z,6.18
2023-01-30T14:44:49.262Z,8.18
2023-01-30T14:47:47.668Z,4.43
2023-01-30T14:50:36.782Z,3.22
2023-01-30T14:53:26.143Z,5.85
2023-01-30T14:56:13.718Z,6.25
2023-01-30T14:59:04.299Z,6.00
2023-01-30T15:01:58.457Z,6.47
2023-01-30T15:04:49.659Z,5.22
2023-01-30T15:07:42.566Z,4.65
2023-01-30T15:10:57.395Z,5.45
2023-01-30T15:13:59.768Z,5.63
2023-01-30T15:17:05.663Z,4.72
2023-01-30T15:20:08.340Z,16.02
2023-01-30T15:23:14.616Z,19.30
2023-01-30T15:26:25.235Z,29.75
2023-01-30T15:29:35.134Z,22.65
2023-01-30T15:32:25.125Z,15.07
2023-01-30T15:35:25.749Z,12.98
2023-01-30T15:38:28.837Z,12.93
2023-01-30T15:41:16.388Z,10.73
2023-01-30T15:44:34.250Z,9.07
2023-01-30T15:50:18.696Z,7.90
2023-01-30T15:53:13.760Z,13.18
2023-01-30T15:56:03.372Z,14.23
2023-01-30T15:58:51.441Z,9.73
2023-01-30T16:01:40.528Z,17.27
2023-01-30T16:04:29.004Z,15.65
2023-01-30T16:07:17.639Z,10.63
2023-01-30T16:10:07.727Z,11.23
2023-01-30T16:12:57.446Z,13.23
2023-01-30T16:15:49.998Z,10.10
2023-01-30T16:18:42.828Z,10.48
2023-01-30T16:21:34.275Z,7.47
2023-01-30T16:24:24.939Z,13.55
2023-01-30T16:27:19.477Z,12.20
2023-01-30T16:30:10.187Z,14.85
2023-01-30T16:32:58.663Z,17.38
2023-01-30T16:35:48.038Z,11.20
2023-01-30T16:38:44.963Z,15.57
2023-01-30T16:41:34.326Z,9.13
2023-01-30T16:44:23.402Z,13.40
2023-01-30T16:47:24.264Z,12.25
2023-01-30T16:50:19.290Z,13.32
2023-01-30T16:53:15.931Z,13.82
2023-01-30T16:56:07.692Z,13.43
2023-01-30T16:58:58.857Z,10.32
2023-01-30T17:01:46.714Z,17.20
2023-01-30T17:04:35.967Z,12.68
2023-01-30T17:07:35.453Z,11.77
2023-01-30T17:10:52.502Z,15.65
2023-01-30T17:13:42.629Z,17.85
2023-01-30T17:16:35.098Z,12.00
2023-01-30T17:19:22.507Z,14.68
2023-01-30T17:22:20.721Z,16.63
2023-01-30T17:25:23.333Z,19.33
2023-01-30T17:28:18.025Z,21.17
2023-01-30T17:31:06.101Z,11.57
2023-01-30T17:33:53.519Z,18.10
2023-01-30T17:36:42.142Z,9.52
2023-01-30T17:39:29.963Z,10.93
2023-01-30T17:42:21.136Z,6.70
2023-01-30T17:45:11.111Z,6.22
2023-01-30T17:47:58.845Z,5.10
2023-01-30T17:50:46.495Z,5.63
2023-01-30T17:53:34.101Z,7.80
2023-01-30T17:56:24.605Z,6.80
2023-01-30T17:59:14.821Z,5.82
2023-01-30T18:02:03.813Z,10.60
2023-01-30T18:04:51.674Z,7.85
2023-01-30T18:07:40.173Z,6.15
2023-01-30T18:10:27.786Z,6.60
2023-01-30T18:13:14.966Z,8.68
2023-01-30T18:16:03.520Z,4.60
2023-01-30T18:18:52.774Z,10.38
2023-01-30T18:21:43.457Z,5.50
2023-01-30T18:24:31.023Z,7.03
2023-01-30T18:27:19.117Z,6.95
2023-01-30T18:30:07.770Z,12.88
2023-01-30T18:32:55.330Z,5.15
2023-01-30T18:35:44.275Z,7.22
2023-01-30T18:38:32.034Z,3.97
2023-01-30T18:41:21.945Z,4.13
2023-01-30T18:44:11.439Z,6.00
2023-01-30T18:46:59.377Z,4.20
2023-01-30T18:49:47.036Z,5.35
2023-01-30T18:52:36.203Z,4.82
2023-01-30T18:55:25.658Z,3.42
2023-01-30T18:58:13.323Z,6.53
2023-01-30T19:01:02.021Z,6.93
2023-01-30T19:03:50.391Z,3.55
2023-01-30T19:06:39.586Z,5.00
2023-01-30T19:09:29.040Z,2.83
2023-01-30T19:12:34.286Z,4.78
2023-01-30T19:15:21.849Z,8.98
2023-01-30T19:18:09.480Z,4.05
2023-01-30T19:21:00.358Z,3.42
2023-01-30T19:23:49.175Z,2.90
2023-01-30T19:26:38.166Z,5.43
2023-01-30T19:29:25.510Z,6.45
2023-01-30T19:32:13.070Z,4.13
2023-01-30T19:35:00.799Z,4.45
2023-01-30T19:37:48.377Z,4.97
2023-01-30T19:40:36.057Z,5.15
2023-01-30T19:43:25.006Z,5.90
2023-01-30T19:46:13.997Z,3.42
2023-01-30T19:49:03.501Z,6.20
2023-01-30T19:51:50.973Z,10.27
2023-01-30T19:54:38.524Z,3.78
2023-01-30T19:57:26.262Z,8.90
2023-01-30T20:00:16.954Z,9.52
2023-01-30T20:03:04.276Z,8.27
2023-01-30T20:05:51.814Z,5.78
2023-01-30T20:08:40.039Z,6.75
2023-01-30T20:11:27.777Z,3.90
2023-01-30T20:14:15.502Z,5.22
2023-01-30T20:17:04.703Z,11.38
2023-01-30T20:19:52.581Z,5.53
2023-01-30T20:22:39.987Z,8.40
2023-01-30T20:25:27.562Z,6.57
2023-01-30T20:28:15.268Z,7.53
2023-01-30T20:31:09.340Z,5.95
2023-01-30T20:34:01.712Z,5.68
2023-01-30T20:36:49.480Z,5.40
2023-01-30T20:39:37.500Z,6.50
2023-01-30T20:42:25.084Z,4.88
2023-01-30T20:45:12.988Z,3.83
2023-01-30T20:48:00.753Z,5.95
2023-01-30T20:50:49.940Z,4.80
2023-01-30T20:53:38.359Z,7.07
2023-01-30T20:56:28.061Z,3.63
2023-01-30T20:59:17.279Z,7.28
2023-01-30T21:02:04.932Z,8.35
2023-01-30T21:04:52.629Z,9.65
2023-01-30T21:07:41.748Z,3.22
2023-01-30T21:10:29.364Z,5.25
2023-01-30T21:13:17.197Z,7.38
2023-01-30T21:16:07.387Z,6.18
2023-01-30T21:19:00.152Z,6.50
2023-01-30T21:21:54.136Z,5.55
2023-01-30T21:24:43.085Z,8.65
2023-01-30T21:27:30.545Z,4.78
2023-01-30T21:30:18.810Z,5.03
2023-01-30T21:33:06.304Z,6.00
2023-01-30T21:35:53.723Z,10.05
2023-01-30T21:38:58.958Z,8.55
2023-01-30T21:42:05.485Z,5.90
2023-01-30T21:44:52.934Z,7.83
2023-01-30T21:47:41.128Z,7.88
2023-01-30T21:50:29.215Z,8.02
2023-01-30T21:53:16.686Z,12.20
2023-01-30T21:56:04.407Z,8.05
2023-01-30T21:58:55.931Z,7.72
2023-01-30T22:01:44.315Z,10.18
2023-01-30T22:04:35.317Z,6.90
2023-01-30T22:07:23.233Z,6.07
2023-01-30T22:10:12.077Z,13.35
2023-01-30T22:12:59.513Z,10.63
2023-01-30T22:15:48.488Z,14.18
2023-01-30T22:18:37.431Z,11.50
2023-01-30T22:21:26.997Z,10.45
2023-01-30T22:24:15.744Z,18.25
2023-01-30T22:27:03.429Z,11.70
2023-01-30T22:29:51.656Z,6.18
2023-01-30T22:32:40.595Z,11.80
2023-01-30T22:35:28.159Z,10.68
2023-01-30T22:38:15.741Z,9.52
2023-01-30T22:41:07.166Z,10.68
2023-01-30T22:43:56.780Z,10.65
2023-01-30T22:46:44.871Z,11.18
2023-01-30T22:49:34.053Z,8.27
2023-01-30T22:52:21.633Z,5.95
2023-01-30T22:55:09.803Z,11.13
2023-01-30T22:57:57.290Z,7.22
2023-01-30T23:00:44.827Z,12.77
2023-01-30T23:03:32.344Z,11.65
2023-01-30T23:06:21.632Z,9.70
2023-01-30T23:09:11.401Z,10.43
2023-01-30T23:12:16.747Z,15.50
2023-01-30T23:15:04.322Z,8.52
2023-01-30T23:18:09.043Z,8.43
2023-01-30T23:20:57.162Z,8.77
2023-01-30T23:23:46.993Z,6.88
2023-01-30T23:26:39.151Z,11.30
2023-01-30T23:29:26.956Z,9.30
2023-01-30T23:32:15.048Z,5.60
2023-01-30T23:35:02.905Z,11.95
2023-01-30T23:38:07.680Z,8.55
2023-01-30T23:41:06.985Z,8.50
2023-01-30T23:43:54.893Z,10.23
2023-01-30T23:46:43.885Z,11.95
2023-01-30T23:49:32.037Z,13.68
2023-01-30T23:52:19.766Z,12.57
2023-01-30T23:55:08.401Z,16.30
2023-01-30T23:57:57.510Z,14.52
